Time;durP1;ratioP1;P1;durP2;ratioP2;P2;SDS_P1;SDS_P2;PMS_P1;PMS_P2;Temp;Humidity;BMP_temperature;BMP_pressure;BME280_temperature;BME280_humidity;BME280_pressure;Samples;Min_cycle;Max_cycle;Signal;HPM_P1;HPM_P2
2023/10/01 00:00:28;;;;;;;26.60;23.53;;;21.60;99.90;;;;;;5054839;28;20483;-63
2023/10/01 00:02:56;;;;;;;27.83;24.65;;;21.60;99.90;;;;;;5054029;28;20976;-64
2023/10/01 00:05:24;;;;;;;30.80;25.20;;;21.70;99.90;;;;;;5057769;28;20654;-63
2023/10/01 00:07:52;;;;;;;28.57;24.20;;;21.60;99.90;;;;;;5059494;28;20491;-63
2023/10/01 00:10:21;;;;;;;30.33;24.20;;;21.60;99.90;;;;;;5053325;28;20453;-63
2023/10/01 00:12:50;;;;;;;26.83;22.63;;;21.60;99.90;;;;;;5058494;28;20625;-63
2023/10/01 00:15:21;;;;;;;26.30;22.37;;;21.50;99.90;;;;;;5057014;28;20456;-64
2023/10/01 00:17:49;;;;;;;27.98;23.08;;;21.60;99.90;;;;;;5058338;28;20459;-63
2023/10/01 00:20:22;;;;;;;27.98;23.13;;;21.50;99.90;;;;;;5058446;28;20210;-63
2023/10/01 00:22:51;;;;;;;26.10;21.43;;;21.60;99.90;;;;;;5059367;28;20200;-63
2023/10/01 00:25:22;;;;;;;27.50;23.27;;;21.60;99.90;;;;;;5057999;28;20956;-63
2023/10/01 00:27:49;;;;;;;27.15;23.27;;;21.60;99.90;;;;;;5053148;28;20372;-63
2023/10/01 00:30:15;;;;;;;25.57;22.13;;;21.60;99.90;;;;;;5056124;28;20203;-64
2023/10/01 00:32:43;;;;;;;25.17;22.20;;;21.60;99.90;;;;;;5056637;28;21152;-62
2023/10/01 00:35:11;;;;;;;26.57;22.13;;;21.50;99.90;;;;;;5058594;28;21059;-63
2023/10/01 00:37:38;;;;;;;28.35;22.98;;;21.50;99.90;;;;;;5059798;28;20459;-64
2023/10/01 00:40:08;;;;;;;25.42;22.58;;;21.60;99.90;;;;;;5058449;28;20214;-63
2023/10/01 00:42:37;;;;;;;26.77;22.20;;;21.60;99.90;;;;;;5054921;28;20202;-64
2023/10/01 00:45:07;;;;;;;25.75;22.33;;;21.60;99.90;;;;;;5055523;28;20468;-63
2023/10/01 00:47:36;;;;;;;26.10;22.47;;;21.60;99.90;;;;;;5057455;28;20194;-63
2023/10/01 00:50:05;;;;;;;29.85;22.10;;;21.50;99.90;;;;;;5056802;28;20452;-64
2023/10/01 00:52:32;;;;;;;25.17;22.43;;;21.50;99.90;;;;;;5059843;28;20208;-64
2023/10/01 00:54:58;;;;;;;22.87;20.40;;;21.60;99.90;;;;;;5059960;28;20461;-63
2023/10/01 00:57:26;;;;;;;24.67;21.05;;;21.50;99.90;;;;;;5060867;28;21189;-63
2023/10/01 00:59:54;;;;;;;26.40;23.20;;;21.50;99.90;;;;;;5057444;28;20628;-63
2023/10/01 01:02:22;;;;;;;29.00;22.50;;;21.60;99.90;;;;;;5051838;28;20232;-64
2023/10/01 01:05:06;;;;;;;24.87;22.23;;;21.50;99.90;;;;;;5059884;28;20584;-63
2023/10/01 01:07:36;;;;;;;25.07;21.53;;;21.60;99.90;;;;;;5057180;28;20974;-64
2023/10/01 01:10:04;;;;;;;29.05;23.80;;;21.50;99.90;;;;;;5057815;28;20459;-63
2023/10/01 01:12:32;;;;;;;23.83;21.43;;;21.50;99.90;;;;;;5053203;28;20199;-63
2023/10/01 01:15:00;;;;;;;28.02;21.83;;;21.50;99.90;;;;;;5057011;28;20773;-63
2023/10/01 01:17:27;;;;;;;23.33;20.43;;;21.50;99.90;;;;;;5052471;28;20530;-63
2023/10/01 01:19:55;;;;;;;24.60;22.00;;;21.60;99.90;;;;;;5057782;28;20483;-63
2023/10/01 01:22:29;;;;;;;26.70;20.63;;;21.50;99.90;;;;;;5056234;28;21008;-64
2023/10/01 01:25:00;;;;;;;26.60;22.65;;;21.50;99.90;;;;;;5055234;28;20936;-64
2023/10/01 01:27:30;;;;;;;27.13;20.60;;;21.50;99.90;;;;;;5056652;28;20209;-63
2023/10/01 01:29:57;;;;;;;23.30;20.80;;;21.40;99.90;;;;;;5054168;28;20296;-63
2023/10/01 01:32:24;;;;;;;23.05;20.48;;;21.50;99.90;;;;;;5053049;28;20456;-63
2023/10/01 01:34:52;;;;;;;21.17;19.00;;;21.50;99.90;;;;;;5056161;28;20193;-63
2023/10/01 01:37:30;;;;;;;23.00;20.80;;;21.50;99.90;;;;;;5055883;28;20794;-63
2023/10/01 01:39:58;;;;;;;24.13;20.53;;;21.50;99.90;;;;;;5057263;28;20474;-63
2023/10/01 01:42:26;;;;;;;22.23;19.10;;;21.50;99.90;;;;;;5056632;28;20457;-64
2023/10/01 01:45:18;;;;;;;23.70;21.20;;;21.50;99.90;;;;;;5055610;28;20586;-63
2023/10/01 01:47:41;;;;;;;23.30;20.83;;;21.60;99.90;;;;;;5057746;28;20459;-63
2023/10/01 01:50:18;;;;;;;23.73;21.23;;;21.50;99.90;;;;;;5054036;28;20459;-64
2023/10/01 01:52:47;;;;;;;22.80;20.60;;;21.50;99.90;;;;;;5058094;28;20456;-63
2023/10/01 01:55:26;;;;;;;22.20;18.60;;;21.50;99.90;;;;;;5054862;28;20459;-63
2023/10/01 01:58:06;;;;;;;23.83;20.27;;;21.40;99.90;;;;;;5057428;28;20470;-64
2023/10/01 02:00:34;;;;;;;23.40;19.87;;;21.50;99.90;;;;;;5053927;28;20206;-63
2023/10/01 02:03:10;;;;;;;22.60;19.83;;;21.50;99.90;;;;;;5052497;28;20951;-63
2023/10/01 02:05:38;;;;;;;21.85;19.65;;;21.50;99.90;;;;;;5055553;28;20190;-62
2023/10/01 02:08:09;;;;;;;21.70;18.77;;;21.60;99.90;;;;;;5057693;28;20591;-63
2023/10/01 02:10:44;;;;;;;22.77;20.10;;;21.50;99.90;;;;;;5054535;28;20525;-63
2023/10/01 02:13:16;;;;;;;21.83;19.63;;;21.50;99.90;;;;;;5051018;28;20455;-63
2023/10/01 02:15:45;;;;;;;22.85;20.50;;;21.40;99.90;;;;;;5054201;28;20464;-63
2023/10/01 02:18:16;;;;;;;24.83;17.77;;;21.40;99.90;;;;;;5057507;28;20895;-63
2023/10/01 02:20:44;;;;;;;24.70;19.50;;;21.40;99.90;;;;;;5055623;28;20873;-62
2023/10/01 02:23:12;;;;;;;23.00;20.77;;;21.40;99.90;;;;;;5062339;28;20448;-64
2023/10/01 02:25:46;;;;;;;21.40;19.20;;;21.50;99.90;;;;;;5059309;28;20342;-64
2023/10/01 02:28:14;;;;;;;22.20;19.77;;;21.50;99.90;;;;;;5061966;28;20483;-62
2023/10/01 02:30:44;;;;;;;20.77;18.53;;;21.40;99.90;;;;;;5058142;28;20514;-64
2023/10/01 02:33:18;;;;;;;21.20;18.95;;;21.40;99.90;;;;;;5057415;28;20995;-65
2023/10/01 02:35:48;;;;;;;22.35;18.52;;;21.40;99.90;;;;;;5061062;28;20177;-62
2023/10/01 02:41:26;;;;;;;21.20;19.00;;;21.50;99.90;;;;;;5087745;27;21572;-63
2023/10/01 02:43:52;;;;;;;22.00;19.50;;;21.40;99.90;;;;;;5082529;28;20565;-63
2023/10/01 02:46:26;;;;;;;24.10;20.27;;;21.40;99.90;;;;;;5081153;28;20983;-62
2023/10/01 02:48:54;;;;;;;21.08;18.92;;;21.40;99.90;;;;;;5083287;28;20481;-63
2023/10/01 02:51:32;;;;;;;20.10;18.00;;;21.50;99.90;;;;;;5084271;28;20181;-63
2023/10/01 02:54:03;;;;;;;21.40;18.70;;;21.40;99.90;;;;;;5086057;28;20862;-63
2023/10/01 02:56:32;;;;;;;20.37;18.37;;;21.40;99.90;;;;;;5082222;28;20283;-63
2023/10/01 02:59:07;;;;;;;21.17;18.97;;;21.40;99.90;;;;;;5085381;28;20455;-63
2023/10/01 03:01:34;;;;;;;20.87;17.83;;;21.40;99.90;;;;;;5080231;28;20604;-63
2023/10/01 03:04:05;;;;;;;20.23;18.10;;;21.40;99.90;;;;;;5083958;28;20521;-64
2023/10/01 03:06:33;;;;;;;20.23;18.13;;;21.40;99.90;;;;;;5084191;28;21173;-62
2023/10/01 03:09:04;;;;;;;19.48;17.48;;;21.40;99.90;;;;;;5085926;28;21491;-63
2023/10/01 03:11:41;;;;;;;20.58;18.42;;;21.30;99.90;;;;;;5075876;28;20781;-63
2023/10/01 03:14:19;;;;;;;19.13;17.15;;;21.30;99.90;;;;;;5084097;28;20196;-63
2023/10/01 03:16:53;;;;;;;20.63;18.27;;;21.50;99.90;;;;;;5082120;28;20556;-63
2023/10/01 03:19:25;;;;;;;18.90;16.92;;;21.40;99.90;;;;;;5082790;28;20296;-64
2023/10/01 03:24:42;;;;;;;20.90;16.77;;;21.40;99.90;;;;;;5082786;28;20196;-63
2023/10/01 03:30:19;;;;;;;19.50;16.70;;;21.40;99.90;;;;;;5076434;28;20467;-64
2023/10/01 03:32:46;;;;;;;21.05;18.85;;;21.40;99.90;;;;;;5084071;28;20194;-63
2023/10/01 03:35:13;;;;;;;19.20;17.30;;;21.30;99.90;;;;;;5080972;28;20229;-64
2023/10/01 03:37:40;;;;;;;18.40;16.40;;;21.40;99.90;;;;;;5085515;28;21068;-63
2023/10/01 03:40:18;;;;;;;20.77;17.33;;;21.40;99.90;;;;;;5082584;28;21048;-63
2023/10/01 03:42:51;;;;;;;18.43;16.50;;;21.40;99.90;;;;;;5081038;28;20270;-64
2023/10/01 03:45:38;;;;;;;19.43;17.43;;;21.40;99.90;;;;;;5082327;28;20450;-64
2023/10/01 03:48:07;;;;;;;19.45;17.00;;;21.40;99.90;;;;;;5083608;28;20547;-64
2023/10/01 03:50:45;;;;;;;19.95;17.30;;;21.40;99.90;;;;;;5080730;28;20349;-64
2023/10/01 03:53:12;;;;;;;18.17;16.27;;;21.40;99.90;;;;;;5070299;28;20184;-64
2023/10/01 03:55:42;;;;;;;20.20;17.27;;;21.30;99.90;;;;;;5069768;28;20202;-65
2023/10/01 03:58:18;;;;;;;19.75;16.88;;;21.40;99.90;;;;;;5068531;28;20469;-65
2023/10/01 04:00:53;;;;;;;18.35;16.45;;;21.40;99.90;;;;;;5062910;28;20244;-64
2023/10/01 04:03:21;;;;;;;18.23;16.37;;;21.40;99.90;;;;;;5066227;28;20627;-63
2023/10/01 04:05:48;;;;;;;18.00;16.20;;;21.40;99.90;;;;;;5068710;28;20470;-64
2023/10/01 04:08:15;;;;;;;20.60;16.40;;;21.30;99.90;;;;;;5068117;28;20233;-64
2023/10/01 04:10:45;;;;;;;18.42;16.52;;;21.30;99.90;;;;;;5070968;28;20996;-64
2023/10/01 04:13:20;;;;;;;17.70;15.80;;;21.30;99.90;;;;;;5069335;28;20190;-66
2023/10/01 04:15:48;;;;;;;18.83;16.60;;;21.30;99.90;;;;;;5067151;28;20886;-64
2023/10/01 04:18:23;;;;;;;17.20;15.55;;;21.40;99.90;;;;;;5067579;28;20459;-63
2023/10/01 04:23:34;;;;;;;17.50;15.73;;;21.40;99.90;;;;;;5066694;28;20201;-64
2023/10/01 04:26:05;;;;;;;17.58;15.77;;;21.30;99.90;;;;;;5071313;28;20201;-66
2023/10/01 04:28:35;;;;;;;17.05;15.35;;;21.40;99.90;;;;;;5069224;28;20240;-64
2023/10/01 04:31:03;;;;;;;16.92;15.23;;;21.30;99.90;;;;;;5069242;28;20199;-64
2023/10/01 04:33:30;;;;;;;18.35;16.45;;;21.40;99.90;;;;;;5061075;28;20236;-64
2023/10/01 04:35:58;;;;;;;17.85;16.10;;;21.40;99.90;;;;;;5066571;28;20208;-64
2023/10/01 04:38:28;;;;;;;18.40;15.43;;;21.30;99.90;;;;;;5067883;28;20700;-64
2023/10/01 04:40:55;;;;;;;17.00;15.30;;;21.30;99.90;;;;;;5071875;28;20479;-65
2023/10/01 04:43:26;;;;;;;17.83;15.93;;;21.30;99.90;;;;;;5063247;28;20201;-64
2023/10/01 04:45:54;;;;;;;18.20;15.02;;;21.30;99.90;;;;;;5064745;28;20712;-64
2023/10/01 04:48:24;;;;;;;16.80;15.13;;;21.30;99.90;;;;;;5068386;28;20253;-65
2023/10/01 04:50:53;;;;;;;15.65;14.13;;;21.40;99.90;;;;;;5069413;28;20199;-65
2023/10/01 04:53:21;;;;;;;18.60;15.73;;;21.30;99.90;;;;;;5065663;28;20194;-65
2023/10/01 04:55:57;;;;;;;18.17;15.88;;;21.30;99.90;;;;;;5067719;28;20505;-66
2023/10/01 04:58:26;;;;;;;18.17;16.23;;;21.30;99.90;;;;;;5069456;28;20185;-64
2023/10/01 05:00:56;;;;;;;15.80;14.30;;;21.40;99.90;;;;;;5062912;28;20217;-65
2023/10/01 05:03:38;;;;;;;15.98;14.38;;;21.40;99.90;;;;;;5067598;28;20201;-64
2023/10/01 05:06:07;;;;;;;17.85;15.02;;;21.40;99.90;;;;;;5066556;28;20635;-65
2023/10/01 05:08:39;;;;;;;16.65;14.93;;;21.20;99.90;;;;;;5069560;28;21530;-65
2023/10/01 05:11:10;;;;;;;17.33;15.73;;;21.30;99.90;;;;;;5068338;28;20217;-66
2023/10/01 05:13:39;;;;;;;16.47;14.87;;;21.30;99.90;;;;;;5065319;28;20202;-65
2023/10/01 05:16:08;;;;;;;15.20;13.63;;;21.30;99.90;;;;;;5068761;28;20454;-65
2023/10/01 05:18:35;;;;;;;16.92;14.95;;;21.30;99.90;;;;;;5069449;28;20956;-65
2023/10/01 05:21:04;;;;;;;16.90;15.10;;;21.30;99.90;;;;;;5067901;28;20209;-65
2023/10/01 05:23:31;;;;;;;16.25;14.63;;;21.30;99.90;;;;;;5069154;28;20218;-65
2023/10/01 05:25:58;;;;;;;16.95;15.15;;;21.30;99.90;;;;;;5064187;28;20203;-65
2023/10/01 05:28:31;;;;;;;15.95;14.35;;;21.30;99.90;;;;;;5068649;28;20221;-65
2023/10/01 05:30:58;;;;;;;17.75;15.90;;;21.20;99.90;;;;;;5067139;28;20334;-65
2023/10/01 05:33:27;;;;;;;16.30;14.70;;;21.30;99.90;;;;;;5067519;28;20185;-64
2023/10/01 05:35:57;;;;;;;17.43;15.10;;;21.20;99.90;;;;;;5069178;28;20188;-65
2023/10/01 05:38:26;;;;;;;15.70;14.30;;;21.30;99.90;;;;;;5066600;28;20456;-66
2023/10/01 05:40:54;;;;;;;16.77;14.97;;;21.20;99.90;;;;;;5068740;28;20233;-64
2023/10/01 05:43:27;;;;;;;16.23;14.52;;;21.20;99.90;;;;;;5069052;28;20531;-65
2023/10/01 05:46:01;;;;;;;17.10;15.50;;;21.30;99.90;;;;;;5065137;28;20197;-65
2023/10/01 05:48:30;;;;;;;18.50;15.70;;;21.20;99.90;;;;;;5066068;28;20909;-65
2023/10/01 05:50:58;;;;;;;15.85;14.32;;;21.20;99.90;;;;;;5069423;28;20633;-66
2023/10/01 05:53:26;;;;;;;17.33;15.50;;;21.10;99.90;;;;;;5062686;28;20694;-64
2023/10/01 05:55:52;;;;;;;17.47;15.20;;;21.20;99.90;;;;;;5065552;28;20199;-65
2023/10/01 05:58:21;;;;;;;16.15;14.50;;;21.20;99.90;;;;;;5067811;28;20464;-65
2023/10/01 06:00:56;;;;;;;16.88;15.15;;;21.30;99.90;;;;;;5064236;28;20251;-66
2023/10/01 06:03:24;;;;;;;14.63;13.23;;;21.10;99.90;;;;;;5064600;28;20205;-65
2023/10/01 06:05:57;;;;;;;15.57;14.17;;;21.20;99.90;;;;;;5064634;28;20478;-65
2023/10/01 06:08:25;;;;;;;16.58;14.32;;;21.10;99.90;;;;;;5068135;28;20459;-65
2023/10/01 06:11:06;;;;;;;15.63;14.02;;;21.30;99.90;;;;;;5067663;28;20205;-65
2023/10/01 06:13:35;;;;;;;15.10;13.35;;;21.20;99.90;;;;;;5067882;28;20631;-64
2023/10/01 06:16:11;;;;;;;15.85;14.20;;;21.30;99.90;;;;;;5067256;28;20545;-65
2023/10/01 06:18:42;;;;;;;15.40;13.82;;;21.20;99.90;;;;;;5065081;28;21035;-65
2023/10/01 06:21:11;;;;;;;15.07;13.57;;;21.30;99.90;;;;;;5068453;28;20304;-65
2023/10/01 06:23:49;;;;;;;16.67;14.95;;;21.20;99.90;;;;;;5063457;28;20193;-65
2023/10/01 06:26:20;;;;;;;16.33;14.75;;;21.30;99.90;;;;;;5068422;28;20259;-65
2023/10/01 06:28:47;;;;;;;15.30;13.80;;;21.30;99.90;;;;;;5064488;28;20193;-63
2023/10/01 06:31:16;;;;;;;15.10;13.65;;;21.20;99.90;;;;;;5065967;28;20459;-65
2023/10/01 06:33:44;;;;;;;15.90;14.30;;;21.40;99.90;;;;;;5058683;28;20197;-64
2023/10/01 06:36:16;;;;;;;15.10;13.55;;;21.20;99.90;;;;;;5063454;28;20598;-63
2023/10/01 06:38:44;;;;;;;14.20;12.80;;;21.20;99.90;;;;;;5068153;28;20201;-64
2023/10/01 06:41:16;;;;;;;16.08;14.30;;;21.10;99.90;;;;;;5066387;28;20304;-63
2023/10/01 06:43:48;;;;;;;15.10;12.90;;;21.30;99.90;;;;;;5068578;28;20217;-64
2023/10/01 06:46:16;;;;;;;13.53;12.33;;;21.20;99.90;;;;;;5068817;28;20455;-65
2023/10/01 06:48:43;;;;;;;15.32;13.70;;;21.20;99.90;;;;;;5066778;28;20469;-65
2023/10/01 06:51:12;;;;;;;14.23;12.90;;;21.20;99.90;;;;;;5065913;28;20565;-64
2023/10/01 06:53:47;;;;;;;14.93;13.15;;;21.20;99.90;;;;;;5062869;28;20554;-63
2023/10/01 06:56:17;;;;;;;15.20;13.60;;;21.20;99.90;;;;;;5065577;28;20189;-63
2023/10/01 06:59:01;;;;;;;14.38;12.38;;;21.20;99.90;;;;;;5067725;28;20587;-63
2023/10/01 07:01:42;;;;;;;13.88;12.48;;;21.20;99.90;;;;;;5066766;28;20218;-65
2023/10/01 07:04:09;;;;;;;13.77;12.35;;;21.20;99.90;;;;;;5064433;28;20194;-64
2023/10/01 07:06:38;;;;;;;13.75;12.35;;;21.20;99.90;;;;;;5063579;28;20200;-63
2023/10/01 07:09:25;;;;;;;13.23;11.82;;;21.20;99.90;;;;;;5068679;28;20204;-64
2023/10/01 07:11:52;;;;;;;13.55;12.18;;;21.30;99.90;;;;;;5068001;28;20327;-64
2023/10/01 07:14:29;;;;;;;14.43;12.52;;;21.20;99.90;;;;;;5064178;28;20702;-64
2023/10/01 07:16:57;;;;;;;13.10;11.85;;;21.20;99.90;;;;;;5068136;28;20231;-65
2023/10/01 07:19:23;;;;;;;13.23;11.82;;;21.10;99.90;;;;;;5069346;28;20190;-64
2023/10/01 07:21:56;;;;;;;14.13;12.73;;;21.20;99.90;;;;;;5068952;28;20338;-64
2023/10/01 07:24:24;;;;;;;13.32;12.02;;;21.10;99.90;;;;;;5065901;28;20788;-65
2023/10/01 07:26:51;;;;;;;13.93;12.63;;;21.20;99.90;;;;;;5067727;28;20323;-63
2023/10/01 07:29:19;;;;;;;13.48;12.27;;;21.20;99.90;;;;;;5070699;28;20454;-65
2023/10/01 07:31:46;;;;;;;13.43;12.13;;;21.20;99.90;;;;;;5071687;28;20181;-63
2023/10/01 07:34:13;;;;;;;12.77;11.50;;;21.20;99.90;;;;;;5071054;28;20185;-64
2023/10/01 07:36:43;;;;;;;11.43;10.30;;;21.10;99.90;;;;;;5069179;28;20312;-64
2023/10/01 07:39:13;;;;;;;13.00;11.65;;;21.20;99.90;;;;;;5071919;28;21159;-64
2023/10/01 07:41:44;;;;;;;12.18;11.05;;;21.20;99.90;;;;;;5070552;28;20587;-63
2023/10/01 07:44:12;;;;;;;12.05;10.95;;;21.20;99.90;;;;;;5071432;28;20182;-63
2023/10/01 07:46:38;;;;;;;12.35;11.02;;;21.20;99.90;;;;;;5070737;28;20733;-64
2023/10/01 07:49:05;;;;;;;11.70;10.70;;;21.10;99.90;;;;;;5070612;28;20199;-64
2023/10/01 07:51:36;;;;;;;12.80;11.50;;;21.20;99.90;;;;;;5069447;28;20208;-63
2023/10/01 07:54:09;;;;;;;13.13;11.80;;;21.20;99.90;;;;;;5068883;28;20929;-64
2023/10/01 07:56:39;;;;;;;12.70;11.50;;;21.10;99.90;;;;;;5070563;28;20186;-64
2023/10/01 07:59:28;;;;;;;11.73;10.57;;;21.10;99.90;;;;;;5068936;28;20465;-63
2023/10/01 08:02:08;;;;;;;11.95;10.77;;;21.20;99.90;;;;;;5067727;28;20251;-64
2023/10/01 08:04:50;;;;;;;12.63;11.33;;;21.20;99.90;;;;;;5069075;28;20191;-64
2023/10/01 08:07:22;;;;;;;13.63;11.30;;;21.20;99.90;;;;;;5067608;28;20467;-64
2023/10/01 08:09:51;;;;;;;12.48;11.23;;;21.20;99.90;;;;;;5069563;28;20460;-64
2023/10/01 08:12:20;;;;;;;11.68;10.57;;;21.20;99.90;;;;;;5068725;28;20228;-63
2023/10/01 08:15:15;;;;;;;11.32;10.32;;;21.20;99.90;;;;;;5066590;28;20199;-63
2023/10/01 08:17:34;;;;;;;11.80;10.70;;;21.20;99.90;;;;;;5064552;28;20209;-64
2023/10/01 08:20:14;;;;;;;10.82;9.80;;;21.30;99.90;;;;;;5068433;28;20878;-63
2023/10/01 08:23:09;;;;;;;11.02;9.93;;;21.20;99.90;;;;;;5063882;28;20218;-64
2023/10/01 08:25:32;;;;;;;11.23;10.13;;;21.20;99.90;;;;;;5065202;28;20199;-63
2023/10/01 08:28:26;;;;;;;11.60;10.57;;;21.20;99.90;;;;;;5067795;28;20237;-63
2023/10/01 08:31:02;;;;;;;15.73;10.85;;;21.20;99.90;;;;;;5065375;28;20202;-64
2023/10/01 08:33:42;;;;;;;12.15;10.73;;;21.10;99.90;;;;;;5059763;28;20315;-64
2023/10/01 08:36:12;;;;;;;10.95;9.95;;;21.30;99.90;;;;;;5067043;28;20537;-63
2023/10/01 08:38:47;;;;;;;12.15;9.25;;;21.20;99.90;;;;;;5069381;28;20205;-63
2023/10/01 08:41:32;;;;;;;10.93;9.02;;;21.20;99.90;;;;;;5068055;28;20754;-65
2023/10/01 08:44:10;;;;;;;11.40;10.07;;;21.20;99.90;;;;;;5066875;28;20261;-63
2023/10/01 08:46:39;;;;;;;11.50;9.07;;;21.10;99.90;;;;;;5065059;28;20197;-64
2023/10/01 08:49:22;;;;;;;10.70;9.63;;;21.20;99.90;;;;;;5067237;28;20194;-63
2023/10/01 08:51:52;;;;;;;11.20;9.50;;;21.10;99.90;;;;;;5069643;28;20267;-64
2023/10/01 08:54:23;;;;;;;10.68;9.55;;;21.10;99.90;;;;;;5067623;28;20279;-63
2023/10/01 08:56:51;;;;;;;14.65;9.55;;;21.20;99.90;;;;;;5065459;28;20740;-65
2023/10/01 08:59:24;;;;;;;10.37;9.37;;;21.20;99.90;;;;;;5069167;28;20543;-64
2023/10/01 09:01:55;;;;;;;10.52;9.02;;;21.10;99.90;;;;;;5066270;28;21201;-64
2023/10/01 09:04:44;;;;;;;10.60;9.48;;;21.20;99.90;;;;;;5066463;28;20645;-63
2023/10/01 09:07:18;;;;;;;10.25;9.25;;;21.30;99.90;;;;;;5069621;28;20258;-64
2023/10/01 09:09:52;;;;;;;10.77;9.07;;;21.10;99.90;;;;;;5067264;28;20248;-63
2023/10/01 09:12:19;;;;;;;10.98;9.90;;;21.10;99.90;;;;;;5066542;28;20565;-63
2023/10/01 09:14:47;;;;;;;9.77;8.77;;;21.30;99.90;;;;;;5065953;28;20198;-64
2023/10/01 09:17:25;;;;;;;15.30;9.77;;;21.20;99.90;;;;;;5065502;28;20554;-65
2023/10/01 09:19:52;;;;;;;8.68;7.80;;;21.20;99.90;;;;;;5061240;28;20184;-63
2023/10/01 09:22:40;;;;;;;12.05;9.52;;;21.20;99.90;;;;;;5056729;28;20233;-63
2023/10/01 09:25:16;;;;;;;9.00;7.85;;;21.20;99.90;;;;;;5060649;28;20645;-64
2023/10/01 09:27:57;;;;;;;9.70;8.68;;;21.20;99.90;;;;;;5061936;28;20258;-64
2023/10/01 09:30:27;;;;;;;9.82;8.88;;;21.20;99.90;;;;;;5063670;28;20197;-64
2023/10/01 09:32:54;;;;;;;10.63;8.13;;;21.20;99.90;;;;;;5068507;28;21613;-63
2023/10/01 09:35:31;;;;;;;9.55;8.35;;;21.10;99.90;;;;;;5062743;28;20278;-63
2023/10/01 09:38:10;;;;;;;10.60;8.60;;;21.20;99.90;;;;;;5067558;28;20284;-62
2023/10/01 09:40:38;;;;;;;10.48;8.55;;;21.20;99.90;;;;;;5066332;28;20217;-65
2023/10/01 09:43:17;;;;;;;14.80;9.00;;;21.20;99.90;;;;;;5063298;28;20213;-63
2023/10/01 09:45:47;;;;;;;9.45;8.18;;;21.30;99.90;;;;;;5063960;28;20185;-64
2023/10/01 09:48:30;;;;;;;16.42;8.38;;;21.20;99.90;;;;;;5064201;28;20268;-62
2023/10/01 09:51:09;;;;;;;9.40;8.40;;;21.20;99.90;;;;;;5067189;28;20250;-62
2023/10/01 09:53:48;;;;;;;11.50;9.00;;;21.20;99.90;;;;;;5065159;28;20459;-62
2023/10/01 09:56:25;;;;;;;11.50;7.77;;;21.20;99.90;;;;;;5063317;28;20185;-62
2023/10/01 09:58:58;;;;;;;12.48;8.82;;;21.20;99.90;;;;;;5061926;28;20460;-63
2023/10/01 10:01:27;;;;;;;10.23;8.02;;;21.10;99.90;;;;;;5063389;28;20209;-62
2023/10/01 10:03:59;;;;;;;9.45;6.97;;;21.20;99.90;;;;;;5065669;28;20205;-62
2023/10/01 10:06:26;;;;;;;9.38;7.25;;;21.20;99.90;;;;;;5061489;28;20198;-63
2023/10/01 10:09:03;;;;;;;12.40;9.43;;;21.20;99.90;;;;;;5067068;28;20205;-62
2023/10/01 10:11:31;;;;;;;13.38;8.20;;;21.20;99.90;;;;;;5066414;28;20954;-62
2023/10/01 10:14:00;;;;;;;9.07;7.40;;;21.20;99.90;;;;;;5067818;28;20224;-62
2023/10/01 10:16:30;;;;;;;9.73;6.85;;;21.30;99.90;;;;;;5064173;28;20805;-61
2023/10/01 10:19:09;;;;;;;11.30;7.37;;;21.20;99.90;;;;;;5060148;28;20235;-67
2023/10/01 10:22:09;;;;;;;13.05;7.90;;;21.20;99.90;;;;;;5064181;28;20513;-63
2023/10/01 10:24:40;;;;;;;11.60;7.70;;;21.30;99.90;;;;;;5064368;28;20189;-64
2023/10/01 10:27:09;;;;;;;11.10;7.57;;;21.30;99.90;;;;;;5065366;28;20190;-64
2023/10/01 10:30:14;;;;;;;12.07;7.53;;;21.30;99.90;;;;;;5065225;28;20211;-66
2023/10/01 10:33:40;;;;;;;12.20;8.37;;;21.30;99.90;;;;;;5064502;28;20204;-69
2023/10/01 10:36:49;;;;;;;11.63;7.68;;;21.20;99.90;;;;;;5066057;28;20948;-67
2023/10/01 10:40:23;;;;;;;10.45;7.20;;;21.30;99.90;;;;;;5069314;28;20195;-65
2023/10/01 10:43:16;;;;;;;10.88;7.97;;;21.30;99.90;;;;;;5064471;28;22017;-65
2023/10/01 10:46:06;;;;;;;13.40;8.20;;;21.30;99.90;;;;;;5065068;28;20200;-65
2023/10/01 10:49:02;;;;;;;12.47;7.53;;;21.30;99.90;;;;;;5064763;28;20461;-65
2023/10/01 10:51:49;;;;;;;13.57;9.27;;;21.30;99.90;;;;;;5065173;28;20773;-65
2023/10/01 10:54:29;;;;;;;17.03;8.57;;;21.30;99.90;;;;;;5068611;28;20480;-62
2023/10/01 10:56:58;;;;;;;15.33;9.47;;;21.40;99.90;;;;;;5065496;28;21006;-64
2023/10/01 10:59:25;;;;;;;13.50;9.70;;;21.40;99.90;;;;;;5068442;28;20495;-62
2023/10/01 11:01:56;;;;;;;17.87;9.00;;;21.40;99.90;;;;;;5063959;28;20477;-63
2023/10/01 11:04:32;;;;;;;14.67;8.17;;;21.30;99.90;;;;;;5069644;28;20458;-66
2023/10/01 11:07:04;;;;;;;15.87;9.30;;;21.40;99.90;;;;;;5071294;28;20466;-63
2023/10/01 11:09:32;;;;;;;13.70;7.63;;;21.50;99.90;;;;;;5071675;28;20454;-61
2023/10/01 11:12:05;;;;;;;16.77;8.90;;;21.40;99.90;;;;;;5067406;28;20467;-66
2023/10/01 11:14:33;;;;;;;15.20;9.93;;;21.50;99.90;;;;;;5061841;28;20491;-63
2023/10/01 11:17:00;;;;;;;13.73;8.50;;;21.50;99.90;;;;;;5069693;28;20919;-68
2023/10/01 11:19:28;;;;;;;17.07;9.27;;;21.60;99.90;;;;;;5068929;28;21125;-67
2023/10/01 11:21:57;;;;;;;16.33;9.13;;;21.50;99.90;;;;;;5071145;28;20492;-66
2023/10/01 11:24:33;;;;;;;13.70;7.87;;;21.60;99.90;;;;;;5072008;28;20581;-65
2023/10/01 11:27:14;;;;;;;13.17;9.20;;;21.70;99.90;;;;;;5068445;28;21051;-64
2023/10/01 11:29:42;;;;;;;14.43;9.23;;;21.70;99.90;;;;;;5067041;28;20465;-66
2023/10/01 11:32:16;;;;;;;12.53;6.97;;;21.60;99.90;;;;;;5070268;28;20460;-66
2023/10/01 11:34:45;;;;;;;12.73;8.50;;;21.60;99.90;;;;;;5071575;28;20631;-68
2023/10/01 11:37:18;;;;;;;15.40;9.00;;;21.70;99.90;;;;;;5069277;28;21028;-67
2023/10/01 11:39:52;;;;;;;11.10;7.67;;;21.70;99.90;;;;;;5071945;28;20467;-72
2023/10/01 11:42:35;;;;;;;13.60;8.43;;;21.80;99.90;;;;;;5065490;28;20502;-66
2023/10/01 11:45:28;;;;;;;13.00;7.93;;;21.70;99.90;;;;;;5067901;28;21029;-66
2023/10/01 11:48:05;;;;;;;12.60;8.40;;;21.90;99.90;;;;;;5068191;28;20459;-66
2023/10/01 11:50:32;;;;;;;12.70;8.90;;;21.80;99.90;;;;;;5069525;28;20470;-64
2023/10/01 11:53:05;;;;;;;11.93;7.87;;;21.90;99.90;;;;;;5069105;28;20459;-67
2023/10/01 11:55:33;;;;;;;14.83;7.90;;;21.80;99.90;;;;;;5070306;28;20459;-66
2023/10/01 11:58:00;;;;;;;12.17;8.43;;;21.80;99.90;;;;;;5068621;28;20496;-66
2023/10/01 12:00:52;;;;;;;13.83;7.43;;;21.90;99.90;;;;;;5069529;28;20467;-64
2023/10/01 12:03:19;;;;;;;13.87;8.10;;;21.90;99.90;;;;;;5069399;28;21081;-65
2023/10/01 12:05:47;;;;;;;13.87;8.37;;;21.90;99.90;;;;;;5066419;28;20460;-68
2023/10/01 12:08:17;;;;;;;11.53;7.17;;;21.90;99.90;;;;;;5070422;28;20914;-67
2023/10/01 12:10:51;;;;;;;13.93;8.93;;;22.00;99.90;;;;;;5069882;28;20501;-64
2023/10/01 12:13:20;;;;;;;13.63;7.30;;;22.00;99.90;;;;;;5065837;28;20463;-66
2023/10/01 12:15:52;;;;;;;11.83;8.20;;;22.00;99.90;;;;;;5068501;28;20514;-63
2023/10/01 12:18:18;;;;;;;13.57;7.80;;;22.10;99.90;;;;;;5068910;28;20464;-65
2023/10/01 12:20:50;;;;;;;16.33;7.87;;;22.10;99.90;;;;;;5069605;28;22047;-66
2023/10/01 12:23:19;;;;;;;11.23;8.33;;;22.00;99.90;;;;;;5070295;28;20518;-69
2023/10/01 12:25:52;;;;;;;13.10;7.47;;;22.10;99.90;;;;;;5067514;28;20464;-69
2023/10/01 12:28:24;;;;;;;11.90;7.53;;;22.10;99.90;;;;;;5070018;28;20546;-65
2023/10/01 12:30:58;;;;;;;15.20;7.70;;;22.00;99.90;;;;;;5062722;28;20827;-65
2023/10/01 12:33:25;;;;;;;14.93;6.87;;;22.10;99.90;;;;;;5068586;28;20590;-64
2023/10/01 12:35:52;;;;;;;14.60;8.93;;;22.10;99.90;;;;;;5068531;28;20460;-65
2023/10/01 12:38:24;;;;;;;14.20;8.50;;;22.20;99.90;;;;;;5067922;28;20556;-69
2023/10/01 12:40:52;;;;;;;10.27;7.50;;;22.10;99.90;;;;;;5068953;28;22636;-69
2023/10/01 12:43:41;;;;;;;10.60;6.90;;;22.10;99.90;;;;;;5067669;28;20471;-68
2023/10/01 12:46:08;;;;;;;10.07;6.77;;;22.20;99.90;;;;;;5069988;28;20546;-69
2023/10/01 12:48:40;;;;;;;11.97;7.77;;;22.20;99.90;;;;;;5063649;28;21874;-70
2023/10/01 12:51:07;;;;;;;14.57;6.90;;;22.30;99.90;;;;;;5070613;28;20736;-67
2023/10/01 12:53:35;;;;;;;11.07;7.00;;;22.30;99.90;;;;;;5068589;28;20561;-72
2023/10/01 12:56:07;;;;;;;11.23;7.00;;;22.20;99.90;;;;;;5067320;28;20459;-70
2023/10/01 12:58:39;;;;;;;14.73;9.40;;;22.30;99.90;;;;;;5066964;28;20565;-69
2023/10/01 13:01:07;;;;;;;13.90;8.50;;;22.30;99.90;;;;;;5069494;28;20447;-69
2023/10/01 13:03:42;;;;;;;20.40;8.00;;;22.30;99.90;;;;;;5059470;28;20475;-69
2023/10/01 13:06:12;;;;;;;14.63;7.80;;;22.40;99.90;;;;;;5066547;28;20459;-66
2023/10/01 13:08:41;;;;;;;10.00;6.80;;;22.40;99.90;;;;;;5067861;28;20466;-71